createdAt,value
2019-05-29T00:00:33.685Z,10.40
2019-05-29T00:03:02.539Z,10.40
2019-05-29T00:05:30.963Z,10.30
2019-05-29T00:07:59.394Z,10.30
2019-05-29T00:10:27.826Z,10.20
2019-05-29T00:12:56.249Z,10.20
2019-05-29T00:15:24.686Z,10.10
2019-05-29T00:17:53.103Z,10.10
2019-05-29T00:20:21.536Z,10.10
2019-05-29T00:22:49.946Z,10.10
2019-05-29T00:25:18.868Z,10.10
2019-05-29T00:27:47.333Z,10.00
2019-05-29T00:30:16.965Z,10.00
2019-05-29T00:32:46.166Z,10.00
2019-05-29T00:35:14.757Z,10.00
2019-05-29T00:37:43.211Z,9.90
2019-05-29T00:40:12.998Z,9.90
2019-05-29T00:42:41.983Z,9.80
2019-05-29T00:45:11.482Z,9.80
2019-05-29T00:47:40.162Z,9.80
2019-05-29T00:50:09.896Z,9.70
2019-05-29T00:52:38.517Z,9.70
2019-05-29T00:55:08.576Z,9.60
2019-05-29T00:57:37.339Z,9.60
2019-05-29T01:00:07.005Z,9.50
2019-05-29T01:02:35.426Z,9.40
2019-05-29T01:05:07.608Z,9.40
2019-05-29T01:07:36.020Z,9.40
2019-05-29T01:10:07.096Z,9.40
2019-05-29T01:12:35.516Z,9.30
2019-05-29T01:15:05.840Z,9.30
2019-05-29T01:17:34.264Z,9.30
2019-05-29T01:20:02.749Z,9.20
2019-05-29T01:22:31.249Z,9.20
2019-05-29T01:24:59.696Z,9.10
2019-05-29T01:27:28.106Z,9.10
2019-05-29T01:29:56.612Z,9.10
2019-05-29T01:32:25.033Z,9.10
2019-05-29T01:34:53.452Z,9.10
2019-05-29T01:37:22.293Z,9.00
2019-05-29T01:39:50.965Z,9.00
2019-05-29T01:42:19.497Z,9.00
2019-05-29T01:44:48.172Z,8.90
2019-05-29T01:47:17.406Z,8.90
2019-05-29T01:49:45.933Z,8.80
2019-05-29T01:52:15.497Z,8.80
2019-05-29T01:54:44.149Z,8.80
2019-05-29T01:57:12.557Z,8.80
2019-05-29T01:59:41.004Z,8.80
2019-05-29T02:02:09.791Z,8.80
2019-05-29T02:04:38.189Z,8.70
2019-05-29T02:07:06.689Z,8.70
2019-05-29T02:09:35.113Z,8.60
2019-05-29T02:12:03.658Z,8.60
2019-05-29T02:14:32.091Z,8.60
2019-05-29T02:17:00.486Z,8.60
2019-05-29T02:19:28.925Z,8.60
2019-05-29T02:21:57.342Z,8.50
2019-05-29T02:24:25.763Z,8.50
2019-05-29T02:26:54.182Z,8.50
2019-05-29T02:29:23.016Z,8.40
2019-05-29T02:31:51.478Z,8.40
2019-05-29T02:34:20.158Z,8.40
2019-05-29T02:36:49.335Z,8.40
2019-05-29T02:39:18.705Z,8.30
2019-05-29T02:41:47.955Z,8.30
2019-05-29T02:44:16.368Z,8.30
2019-05-29T02:46:44.859Z,8.30
2019-05-29T02:49:13.343Z,8.30
2019-05-29T02:51:41.818Z,8.20
2019-05-29T02:54:10.248Z,8.20
2019-05-29T02:56:42.303Z,8.10
2019-05-29T02:59:08.816Z,8.10
2019-05-29T03:01:37.248Z,8.00
2019-05-29T03:04:05.644Z,8.00
2019-05-29T03:06:34.508Z,8.00
2019-05-29T03:09:05.560Z,8.00
2019-05-29T03:11:34.050Z,8.00
2019-05-29T03:14:02.464Z,8.00
2019-05-29T03:16:32.863Z,8.00
2019-05-29T03:19:01.324Z,7.90
2019-05-29T03:21:30.744Z,7.90
2019-05-29T03:23:59.893Z,7.90
2019-05-29T03:26:30.640Z,7.90
2019-05-29T03:28:58.738Z,7.90
2019-05-29T03:31:30.832Z,7.90
2019-05-29T03:33:57.306Z,7.90
2019-05-29T03:36:28.355Z,7.80
2019-05-29T03:38:55.839Z,7.70
2019-05-29T03:41:24.252Z,7.70
2019-05-29T03:43:52.663Z,7.70
2019-05-29T03:46:31.680Z,7.70
2019-05-29T03:48:51.229Z,7.70
2019-05-29T03:51:19.640Z,7.80
2019-05-29T03:53:48.082Z,7.80
2019-05-29T03:56:16.496Z,7.80
2019-05-29T03:58:45.220Z,7.80
2019-05-29T04:01:13.647Z,7.90
2019-05-29T04:03:42.061Z,7.90
2019-05-29T04:06:10.487Z,7.90
2019-05-29T04:08:38.912Z,8.00
2019-05-29T04:11:08.130Z,8.00
2019-05-29T04:13:38.745Z,8.00
2019-05-29T04:16:09.793Z,8.10
2019-05-29T04:18:39.755Z,8.10
2019-05-29T04:21:10.776Z,8.10
2019-05-29T04:23:42.038Z,8.10
2019-05-29T04:26:13.651Z,8.20
2019-05-29T04:28:42.873Z,8.20
2019-05-29T04:31:11.273Z,8.20
2019-05-29T04:33:39.711Z,8.30
2019-05-29T04:36:08.118Z,8.40
2019-05-29T04:38:38.512Z,8.40
2019-05-29T04:41:06.671Z,8.40
2019-05-29T04:43:36.038Z,8.40
2019-05-29T04:46:05.309Z,8.50
2019-05-29T04:48:35.642Z,8.50
2019-05-29T04:51:03.870Z,8.50
2019-05-29T04:53:33.491Z,8.60
2019-05-29T04:56:02.274Z,8.60
2019-05-29T04:58:30.780Z,8.70
2019-05-29T05:00:59.702Z,8.70
2019-05-29T05:03:29.064Z,8.80
2019-05-29T05:05:57.795Z,8.80
2019-05-29T05:08:26.204Z,8.90
2019-05-29T05:10:54.623Z,8.90
2019-05-29T05:13:23.026Z,9.00
2019-05-29T05:15:53.227Z,9.00
2019-05-29T05:18:21.639Z,9.10
2019-05-29T05:20:50.092Z,9.10
2019-05-29T05:23:18.491Z,9.20
2019-05-29T05:25:46.999Z,9.20
2019-05-29T05:28:15.435Z,9.20
2019-05-29T05:30:43.915Z,9.20
2019-05-29T05:33:12.352Z,9.20
2019-05-29T05:35:41.088Z,9.30
2019-05-29T05:38:09.755Z,9.30
2019-05-29T05:40:41.056Z,9.40
2019-05-29T05:43:21.208Z,9.50
2019-05-29T05:45:39.206Z,9.60
2019-05-29T05:48:07.952Z,9.70
2019-05-29T05:50:37.277Z,9.80
2019-05-29T05:53:06.001Z,9.90
2019-05-29T05:55:35.498Z,9.90
2019-05-29T05:58:04.097Z,10.00
2019-05-29T06:00:35.830Z,10.10
2019-05-29T06:03:05.367Z,10.20
2019-05-29T06:05:34.015Z,10.20
2019-05-29T06:08:02.593Z,10.30
2019-05-29T06:10:32.040Z,10.30
2019-05-29T06:13:00.741Z,10.40
2019-05-29T06:15:29.189Z,10.40
2019-05-29T06:18:19.517Z,10.50
2019-05-29T06:20:27.767Z,10.60
2019-05-29T06:22:56.255Z,10.60
2019-05-29T06:25:25.931Z,10.60
2019-05-29T06:27:54.505Z,10.70
2019-05-29T06:30:23.316Z,10.80
2019-05-29T06:32:51.794Z,10.80
2019-05-29T06:35:20.262Z,10.90
2019-05-29T06:37:48.699Z,11.00
2019-05-29T06:40:31.963Z,11.10
2019-05-29T06:43:00.387Z,11.20
2019-05-29T06:45:35.734Z,11.30
2019-05-29T06:48:07.460Z,11.40
2019-05-29T06:50:37.253Z,11.40
2019-05-29T06:53:06.076Z,11.50
2019-05-29T06:55:35.750Z,11.60
2019-05-29T06:58:04.472Z,11.60
2019-05-29T07:00:35.706Z,11.70
2019-05-29T07:03:03.062Z,11.70
2019-05-29T07:05:31.590Z,11.80
2019-05-29T07:08:17.012Z,11.80
2019-05-29T07:10:30.218Z,11.90
2019-05-29T07:12:58.657Z,11.90
2019-05-29T07:15:27.102Z,12.00
2019-05-29T07:17:55.608Z,12.00
2019-05-29T07:20:24.152Z,12.10
2019-05-29T07:22:52.824Z,12.20
2019-05-29T07:25:21.247Z,12.20
2019-05-29T07:27:49.684Z,12.30
2019-05-29T07:30:18.518Z,12.30
2019-05-29T07:32:56.733Z,12.30
2019-05-29T07:35:17.185Z,12.40
2019-05-29T07:40:35.844Z,12.60
2019-05-29T07:43:04.562Z,12.70
2019-05-29T07:45:33.061Z,12.70
2019-05-29T07:48:01.490Z,12.80
2019-05-29T07:50:29.993Z,12.80
2019-05-29T07:52:58.479Z,12.80
2019-05-29T07:55:26.968Z,12.90
2019-05-29T07:57:55.436Z,12.90
2019-05-29T08:00:34.706Z,12.90
2019-05-29T08:02:54.372Z,13.00
2019-05-29T08:05:22.850Z,13.00
2019-05-29T08:07:51.298Z,13.00
2019-05-29T08:10:20.558Z,13.00
2019-05-29T08:12:54.314Z,13.00
2019-05-29T08:15:19.284Z,13.10
2019-05-29T08:17:48.219Z,13.10
2019-05-29T08:20:17.053Z,13.10
2019-05-29T08:22:46.419Z,13.20
2019-05-29T08:25:15.220Z,13.20
2019-05-29T08:27:44.767Z,13.30
2019-05-29T08:30:13.912Z,13.30
2019-05-29T08:32:43.512Z,13.30
2019-05-29T08:35:14.360Z,13.30
2019-05-29T08:37:42.876Z,13.30
2019-05-29T08:40:11.906Z,13.40
2019-05-29T08:42:41.073Z,13.50
2019-05-29T08:45:10.409Z,13.60
2019-05-29T08:47:38.834Z,13.70
2019-05-29T08:50:18.234Z,13.80
2019-05-29T08:52:38.041Z,13.90
2019-05-29T08:55:06.910Z,13.90
2019-05-29T08:57:35.345Z,14.00
2019-05-29T09:00:08.982Z,14.00
2019-05-29T09:02:37.414Z,14.00
2019-05-29T09:05:07.574Z,13.90
2019-05-29T09:07:36.008Z,13.90
2019-05-29T09:10:06.771Z,14.00
2019-05-29T09:12:35.246Z,14.00
2019-05-29T09:15:05.366Z,14.10
2019-05-29T09:17:34.612Z,14.20
2019-05-29T09:20:04.587Z,14.30
2019-05-29T09:22:33.023Z,14.50
2019-05-29T09:25:01.472Z,14.50
2019-05-29T09:27:29.943Z,14.50
2019-05-29T09:29:58.388Z,14.50
2019-05-29T09:32:48.668Z,14.50
2019-05-29T09:34:56.983Z,14.60
2019-05-29T09:37:25.453Z,14.80
2019-05-29T09:39:53.891Z,14.90
2019-05-29T09:42:23.606Z,14.90
2019-05-29T09:44:52.390Z,15.00
2019-05-29T09:47:22.224Z,14.90
2019-05-29T09:49:50.712Z,15.00
2019-05-29T09:52:19.145Z,14.90
2019-05-29T09:54:47.561Z,15.00
2019-05-29T09:57:15.997Z,15.00
2019-05-29T09:59:44.410Z,15.10
2019-05-29T10:02:13.180Z,15.20
2019-05-29T10:04:41.593Z,15.20
2019-05-29T10:07:13.077Z,15.20
2019-05-29T10:09:41.540Z,15.30
2019-05-29T10:12:09.973Z,15.30
2019-05-29T10:14:38.385Z,15.40
2019-05-29T10:17:11.337Z,15.40
2019-05-29T10:19:37.016Z,15.50
2019-05-29T10:22:05.869Z,15.50
2019-05-29T10:24:34.363Z,15.70
2019-05-29T10:27:03.583Z,15.80
2019-05-29T10:29:32.998Z,15.80
2019-05-29T10:32:01.431Z,15.80
2019-05-29T10:34:29.868Z,15.80
2019-05-29T10:36:58.281Z,15.90
2019-05-29T10:39:26.717Z,15.90
2019-05-29T10:41:55.123Z,15.90
2019-05-29T10:44:23.554Z,15.90
2019-05-29T10:46:54.134Z,16.00
2019-05-29T10:49:22.147Z,16.20
2019-05-29T10:52:07.637Z,16.30
2019-05-29T10:54:20.726Z,16.30
2019-05-29T10:56:50.683Z,16.30
2019-05-29T10:59:19.351Z,16.40
2019-05-29T11:01:49.084Z,16.50
2019-05-29T11:04:17.763Z,16.60
2019-05-29T11:06:46.669Z,16.70
2019-05-29T11:09:16.305Z,16.70
2019-05-29T11:11:46.141Z,16.70
2019-05-29T11:14:14.778Z,16.80
2019-05-29T11:16:43.404Z,16.90
2019-05-29T11:19:11.816Z,17.10
2019-05-29T11:21:40.231Z,17.20
2019-05-29T11:24:08.662Z,17.20
2019-05-29T11:26:37.088Z,17.30
2019-05-29T11:29:05.716Z,17.30
2019-05-29T11:31:34.148Z,17.40
2019-05-29T11:34:02.637Z,17.60
2019-05-29T11:36:31.065Z,17.70
2019-05-29T11:39:05.593Z,17.70
2019-05-29T11:41:29.649Z,17.90
2019-05-29T11:43:58.970Z,18.00
2019-05-29T11:46:27.662Z,18.00
2019-05-29T11:48:57.315Z,18.00
2019-05-29T11:51:26.082Z,18.00
2019-05-29T11:53:55.420Z,18.10
2019-05-29T11:56:24.001Z,18.20
2019-05-29T11:58:52.743Z,18.20
2019-05-29T12:01:21.474Z,18.30
2019-05-29T12:04:13.598Z,18.20
2019-05-29T12:06:20.059Z,18.30
2019-05-29T12:08:48.503Z,18.40
2019-05-29T12:11:16.987Z,18.40
2019-05-29T12:13:45.479Z,18.40
2019-05-29T12:16:13.904Z,18.50
2019-05-29T12:18:42.347Z,18.60
2019-05-29T12:21:10.784Z,18.60
2019-05-29T12:23:39.200Z,18.70
2019-05-29T12:26:21.468Z,18.90
2019-05-29T12:28:37.815Z,18.90
2019-05-29T12:31:06.300Z,18.90
2019-05-29T12:33:34.733Z,19.00
2019-05-29T12:36:03.438Z,19.10
2019-05-29T12:38:31.929Z,19.20
2019-05-29T12:41:01.675Z,19.30
2019-05-29T12:43:30.389Z,19.40
2019-05-29T12:46:00.103Z,19.70
2019-05-29T12:48:28.691Z,20.80
2019-05-29T12:50:58.228Z,21.40
2019-05-29T12:53:30.810Z,21.20
2019-05-29T12:56:16.823Z,20.90
2019-05-29T12:58:45.240Z,20.70
2019-05-29T13:01:13.683Z,20.50
2019-05-29T13:03:45.261Z,20.40
2019-05-29T13:06:12.244Z,20.20
2019-05-29T13:08:40.651Z,20.30
2019-05-29T13:11:09.067Z,20.50
2019-05-29T13:13:37.508Z,20.60
2019-05-29T13:16:05.958Z,20.40
2019-05-29T13:18:34.373Z,20.40
2019-05-29T13:21:03.224Z,20.50
2019-05-29T13:23:44.171Z,20.70
2019-05-29T13:26:01.788Z,20.90
2019-05-29T13:28:30.236Z,21.10
2019-05-29T13:30:59.765Z,21.30
2019-05-29T13:33:28.537Z,21.50
2019-05-29T13:35:58.057Z,21.70
2019-05-29T13:38:26.707Z,21.60
2019-05-29T13:40:56.229Z,21.70
2019-05-29T13:43:24.816Z,21.80
2019-05-29T13:45:53.224Z,22.10
2019-05-29T13:48:23.475Z,22.30
2019-05-29T13:50:51.866Z,23.00
2019-05-29T13:53:20.304Z,24.70
2019-05-29T13:55:48.730Z,28.20
2019-05-29T13:58:17.150Z,31.50
2019-05-29T14:00:45.578Z,34.50
2019-05-29T14:03:14.011Z,36.20
2019-05-29T14:05:42.433Z,38.90
2019-05-29T14:08:10.848Z,37.00
2019-05-29T14:10:39.406Z,37.60
2019-05-29T14:13:09.198Z,40.00
2019-05-29T14:15:37.949Z,37.70
2019-05-29T14:18:07.071Z,34.70
2019-05-29T14:20:35.788Z,32.50
2019-05-29T14:23:05.330Z,32.60
2019-05-29T14:25:33.965Z,36.80
2019-05-29T14:28:02.684Z,35.80
2019-05-29T14:30:31.359Z,33.50
2019-05-29T14:32:59.786Z,31.20
2019-05-29T14:35:28.198Z,29.80
2019-05-29T14:37:56.639Z,28.80
2019-05-29T14:40:25.066Z,27.80
2019-05-29T14:42:53.498Z,26.80
2019-05-29T14:45:21.955Z,25.90
2019-05-29T14:47:50.386Z,26.20
2019-05-29T14:50:18.810Z,26.30
2019-05-29T14:52:47.235Z,30.80
2019-05-29T14:55:18.265Z,36.40
2019-05-29T14:57:45.858Z,40.60
2019-05-29T15:00:24.737Z,43.40
2019-05-29T15:02:46.551Z,43.50
2019-05-29T15:05:15.329Z,42.30
2019-05-29T15:07:43.789Z,43.40
2019-05-29T15:10:25.184Z,44.20
2019-05-29T15:12:44.144Z,45.50
2019-05-29T15:15:14.255Z,46.80
2019-05-29T15:17:43.378Z,47.40
2019-05-29T15:20:12.959Z,48.10
2019-05-29T15:22:42.359Z,48.30
2019-05-29T15:25:19.935Z,48.60
2019-05-29T15:27:41.191Z,48.70
2019-05-29T15:30:11.331Z,49.20
2019-05-29T15:32:40.473Z,48.10
2019-05-29T15:35:14.490Z,47.90
2019-05-29T15:37:40.635Z,48.00
2019-05-29T15:40:10.943Z,48.10
2019-05-29T15:42:39.807Z,47.70
2019-05-29T15:45:10.074Z,45.40
2019-05-29T15:47:38.620Z,43.60
2019-05-29T15:50:13.384Z,40.50
2019-05-29T15:52:42.221Z,37.90
2019-05-29T15:55:27.302Z,35.70
2019-05-29T15:57:40.944Z,34.00
2019-05-29T16:00:11.523Z,32.50
2019-05-29T16:02:40.170Z,31.60
2019-05-29T16:05:11.268Z,30.80
2019-05-29T16:07:39.924Z,29.90
2019-05-29T16:10:14.171Z,29.30
2019-05-29T16:12:40.462Z,28.90
2019-05-29T16:15:11.085Z,28.10
2019-05-29T16:17:39.950Z,27.60
2019-05-29T16:20:12.423Z,27.30
2019-05-29T16:22:40.912Z,27.10
2019-05-29T16:25:10.749Z,26.80
2019-05-29T16:27:39.818Z,26.70
2019-05-29T16:30:09.289Z,26.60
2019-05-29T16:32:37.696Z,26.40
2019-05-29T16:35:08.542Z,26.30
2019-05-29T16:37:36.984Z,26.30
2019-05-29T16:40:14.325Z,26.30
2019-05-29T16:42:43.218Z,26.30
2019-05-29T16:45:12.469Z,26.20
2019-05-29T16:47:40.903Z,26.00
2019-05-29T16:50:10.059Z,25.90
2019-05-29T16:52:38.761Z,25.80
2019-05-29T16:55:07.835Z,25.80
2019-05-29T16:57:36.255Z,25.60
2019-05-29T17:00:07.821Z,25.50
2019-05-29T17:02:36.235Z,25.40
2019-05-29T17:05:08.705Z,25.20
2019-05-29T17:07:37.118Z,25.20
2019-05-29T17:10:09.344Z,25.20
2019-05-29T17:12:37.757Z,25.00
2019-05-29T17:15:11.201Z,24.90
2019-05-29T17:17:39.716Z,24.80
2019-05-29T17:20:09.572Z,24.60
2019-05-29T17:22:38.090Z,24.40
2019-05-29T17:25:07.080Z,24.30
2019-05-29T17:27:35.491Z,24.40
2019-05-29T17:30:05.471Z,24.40
2019-05-29T17:32:33.910Z,24.70
2019-05-29T17:35:02.484Z,24.70
2019-05-29T17:37:30.937Z,24.70
2019-05-29T17:39:59.353Z,24.70
2019-05-29T17:42:27.788Z,24.90
2019-05-29T17:44:56.224Z,24.80
2019-05-29T17:47:25.670Z,24.60
2019-05-29T17:49:54.353Z,24.20
2019-05-29T17:52:23.840Z,23.90
2019-05-29T17:54:52.584Z,24.10
2019-05-29T17:57:21.949Z,25.00
2019-05-29T17:59:50.512Z,26.00
2019-05-29T18:02:20.104Z,26.90
2019-05-29T18:04:48.749Z,27.30
2019-05-29T18:07:18.393Z,27.80
2019-05-29T18:09:47.005Z,27.80
2019-05-29T18:12:16.996Z,27.10
2019-05-29T18:14:45.712Z,26.30
2019-05-29T18:17:14.152Z,25.80
2019-05-29T18:19:42.652Z,25.20
2019-05-29T18:22:11.377Z,24.70
2019-05-29T18:24:39.810Z,24.40
2019-05-29T18:27:08.228Z,24.10
2019-05-29T18:29:36.661Z,23.80
2019-05-29T18:32:05.083Z,23.60
2019-05-29T18:34:33.805Z,23.40
2019-05-29T18:37:02.237Z,23.20
2019-05-29T18:39:30.653Z,23.10
2019-05-29T18:41:59.098Z,22.90
2019-05-29T18:44:28.863Z,22.80
2019-05-29T18:46:57.626Z,22.60
2019-05-29T18:49:26.476Z,22.50
2019-05-29T18:51:54.939Z,22.40
2019-05-29T18:54:23.754Z,22.30
2019-05-29T18:57:13.762Z,22.20
2019-05-29T18:59:23.272Z,22.00
2019-05-29T19:01:51.786Z,21.90
2019-05-29T19:04:21.412Z,21.70
2019-05-29T19:06:50.226Z,21.60
2019-05-29T19:09:18.930Z,21.40
2019-05-29T19:11:47.372Z,21.40
2019-05-29T19:14:15.808Z,21.30
2019-05-29T19:16:44.241Z,21.10
2019-05-29T19:19:12.656Z,21.00
2019-05-29T19:21:41.103Z,20.90
2019-05-29T19:24:09.517Z,20.70
2019-05-29T19:26:37.961Z,20.50
2019-05-29T19:29:06.377Z,20.40
2019-05-29T19:31:34.807Z,20.30
2019-05-29T19:34:03.234Z,20.30
2019-05-29T19:36:31.867Z,20.10
2019-05-29T19:39:00.466Z,20.00
2019-05-29T19:41:30.059Z,19.90
2019-05-29T19:43:58.663Z,19.90
2019-05-29T19:46:27.107Z,19.80
2019-05-29T19:48:55.602Z,19.70
2019-05-29T19:51:25.247Z,19.60
2019-05-29T19:53:53.899Z,19.60
2019-05-29T19:56:22.326Z,19.50
2019-05-29T19:58:50.762Z,19.40
2019-05-29T20:01:30.790Z,19.30
2019-05-29T20:03:49.337Z,19.30
2019-05-29T20:06:17.775Z,19.20
2019-05-29T20:08:46.388Z,19.10
2019-05-29T20:11:14.832Z,19.00
2019-05-29T20:13:43.256Z,19.00
2019-05-29T20:16:11.697Z,18.90
2019-05-29T20:18:40.151Z,18.80
2019-05-29T20:21:08.641Z,18.80
2019-05-29T20:23:37.073Z,18.70
2019-05-29T20:26:05.493Z,18.70
2019-05-29T20:28:34.255Z,18.60
2019-05-29T20:31:02.720Z,18.50
2019-05-29T20:33:32.384Z,18.50
2019-05-29T20:36:00.992Z,18.40
2019-05-29T20:38:29.415Z,18.40
2019-05-29T20:40:57.837Z,18.30
2019-05-29T20:43:26.269Z,18.30
2019-05-29T20:45:54.702Z,18.30
2019-05-29T20:48:23.129Z,18.30
2019-05-29T20:50:51.564Z,18.30
2019-05-29T20:53:19.994Z,18.40
2019-05-29T20:55:48.429Z,18.50
2019-05-29T20:58:24.433Z,18.50
2019-05-29T21:00:47.027Z,18.50
2019-05-29T21:03:15.543Z,18.50
2019-05-29T21:05:43.977Z,18.50
2019-05-29T21:08:12.397Z,18.50
2019-05-29T21:10:42.043Z,18.40
2019-05-29T21:13:10.956Z,18.40
2019-05-29T21:15:39.724Z,18.40
2019-05-29T21:18:08.188Z,18.30
2019-05-29T21:20:36.653Z,18.30
2019-05-29T21:23:05.216Z,18.30
2019-05-29T21:25:34.575Z,18.30
2019-05-29T21:28:03.816Z,18.30
2019-05-29T21:30:32.238Z,18.30
2019-05-29T21:33:00.680Z,18.40
2019-05-29T21:35:29.101Z,18.40
2019-05-29T21:37:57.525Z,18.40
2019-05-29T21:40:25.970Z,18.30
2019-05-29T21:42:54.385Z,18.30
2019-05-29T21:45:22.837Z,18.30
2019-05-29T21:47:51.260Z,18.30
2019-05-29T21:50:19.706Z,18.30
2019-05-29T21:52:48.138Z,18.30
2019-05-29T21:55:16.998Z,18.30
2019-05-29T21:57:48.420Z,18.30
2019-05-29T22:00:37.876Z,18.30
2019-05-29T22:03:06.932Z,18.20
2019-05-29T22:05:35.365Z,18.30
2019-05-29T22:08:03.850Z,18.20
2019-05-29T22:10:32.381Z,18.10
2019-05-29T22:13:01.277Z,17.80
2019-05-29T22:15:29.700Z,17.60
2019-05-29T22:17:59.198Z,17.60
2019-05-29T22:20:28.067Z,17.60
2019-05-29T22:22:57.194Z,17.50
2019-05-29T22:25:25.692Z,17.50
2019-05-29T22:27:55.469Z,17.50
2019-05-29T22:30:24.108Z,17.50
2019-05-29T22:32:53.291Z,17.50
2019-05-29T22:35:21.960Z,17.60
2019-05-29T22:37:51.446Z,17.60
2019-05-29T22:40:20.244Z,17.50
2019-05-29T22:42:48.676Z,17.60
2019-05-29T22:45:17.844Z,17.50
2019-05-29T22:47:46.593Z,17.50
2019-05-29T22:50:15.457Z,17.50
2019-05-29T22:52:43.888Z,17.50
2019-05-29T22:55:12.556Z,17.50
2019-05-29T22:57:40.992Z,17.50
2019-05-29T23:00:10.233Z,17.50
2019-05-29T23:02:38.671Z,17.50
2019-05-29T23:05:07.741Z,17.50
2019-05-29T23:07:36.174Z,17.50
2019-05-29T23:10:09.257Z,17.50
2019-05-29T23:12:37.678Z,17.60
2019-05-29T23:15:07.877Z,17.60
2019-05-29T23:17:36.306Z,17.60
2019-05-29T23:20:09.425Z,17.60
2019-05-29T23:22:37.931Z,17.50
2019-05-29T23:25:07.096Z,17.60
2019-05-29T23:27:35.950Z,17.60
2019-05-29T23:30:08.875Z,17.50
2019-05-29T23:32:37.309Z,17.60
2019-05-29T23:35:07.197Z,17.60
2019-05-29T23:37:35.618Z,17.50
2019-05-29T23:40:06.586Z,17.50
2019-05-29T23:42:35.013Z,17.50
2019-05-29T23:45:05.386Z,17.50
2019-05-29T23:47:33.799Z,17.50
2019-05-29T23:50:03.192Z,17.50
2019-05-29T23:52:32.541Z,17.50
2019-05-29T23:55:01.939Z,17.40
2019-05-29T23:57:30.570Z,17.40
